createdAt,value
2018-05-29T00:00:24.325Z,1015.75
2018-05-29T00:01:24.301Z,1015.76
2018-05-29T00:02:24.282Z,1015.77
2018-05-29T00:03:24.261Z,1015.77
2018-05-29T00:04:24.241Z,1015.78
2018-05-29T00:05:24.220Z,1015.76
2018-05-29T00:06:24.200Z,1015.74
2018-05-29T00:07:24.183Z,1015.74
2018-05-29T00:08:24.176Z,1015.74
2018-05-29T00:09:24.145Z,1015.71
2018-05-29T00:10:24.121Z,1015.73
2018-05-29T00:11:24.101Z,1015.67
2018-05-29T00:12:24.080Z,1015.70
2018-05-29T00:13:24.059Z,1015.70
2018-05-29T00:14:24.045Z,1015.73
2018-05-29T00:15:24.027Z,1015.74
2018-05-29T00:16:23.999Z,1015.72
2018-05-29T00:17:23.980Z,1015.74
2018-05-29T00:18:23.957Z,1015.75
2018-05-29T00:19:23.942Z,1015.74
2018-05-29T00:20:23.918Z,1015.74
2018-05-29T00:21:23.897Z,1015.73
2018-05-29T00:22:23.877Z,1015.75
2018-05-29T00:23:23.857Z,1015.76
2018-05-29T00:24:23.837Z,1015.75
2018-05-29T00:25:23.816Z,1015.74
2018-05-29T00:26:23.802Z,1015.70
2018-05-29T00:27:23.779Z,1015.68
2018-05-29T00:28:23.770Z,1015.65
2018-05-29T00:29:23.765Z,1015.65
2018-05-29T00:30:23.715Z,1015.66
2018-05-29T00:31:23.700Z,1015.63
2018-05-29T00:32:23.706Z,1015.61
2018-05-29T00:33:23.654Z,1015.63
2018-05-29T00:34:23.635Z,1015.66
2018-05-29T00:35:23.613Z,1015.64
2018-05-29T00:36:23.596Z,1015.63
2018-05-29T00:37:23.573Z,1015.60
2018-05-29T00:38:23.556Z,1015.59
2018-05-29T00:39:23.532Z,1015.62
2018-05-29T00:40:23.514Z,1015.58
2018-05-29T00:41:23.495Z,1015.60
2018-05-29T00:42:23.476Z,1015.52
2018-05-29T00:43:23.455Z,1015.52
2018-05-29T00:44:23.434Z,1015.54
2018-05-29T00:45:23.410Z,1015.53
2018-05-29T00:46:23.400Z,1015.54
2018-05-29T00:47:23.370Z,1015.56
2018-05-29T00:48:23.350Z,1015.55
2018-05-29T00:49:23.329Z,1015.56
2018-05-29T00:50:23.317Z,1015.53
2018-05-29T00:51:23.295Z,1015.54
2018-05-29T00:52:23.269Z,1015.50
2018-05-29T00:53:23.255Z,1015.49
2018-05-29T00:54:23.230Z,1015.48
2018-05-29T00:55:23.212Z,1015.46
2018-05-29T00:56:23.189Z,1015.45
2018-05-29T00:57:23.172Z,1015.45
2018-05-29T00:58:23.147Z,1015.44
2018-05-29T00:59:23.127Z,1015.41
2018-05-29T01:00:23.109Z,1015.41
2018-05-29T01:01:23.091Z,1015.42
2018-05-29T01:02:23.066Z,1015.45
2018-05-29T01:03:23.047Z,1015.45
2018-05-29T01:04:23.031Z,1015.40
2018-05-29T01:05:23.005Z,1015.45
2018-05-29T01:06:22.990Z,1015.40
2018-05-29T01:07:22.965Z,1015.40
2018-05-29T01:08:22.945Z,1015.38
2018-05-29T01:09:22.936Z,1015.35
2018-05-29T01:10:22.905Z,1015.35
2018-05-29T01:11:22.886Z,1015.36
2018-05-29T01:12:22.864Z,1015.32
2018-05-29T01:13:22.845Z,1015.33
2018-05-29T01:14:22.827Z,1015.36
2018-05-29T01:15:22.804Z,1015.35
2018-05-29T01:16:22.785Z,1015.31
2018-05-29T01:17:22.761Z,1015.31
2018-05-29T01:18:22.745Z,1015.30
2018-05-29T01:19:22.722Z,1015.26
2018-05-29T01:20:22.706Z,1015.25
2018-05-29T01:21:22.682Z,1015.23
2018-05-29T01:22:22.660Z,1015.22
2018-05-29T01:23:22.641Z,1015.23
2018-05-29T01:24:22.622Z,1015.24
2018-05-29T01:25:22.600Z,1015.19
2018-05-29T01:26:22.578Z,1015.17
2018-05-29T01:27:22.562Z,1015.20
2018-05-29T01:28:22.540Z,1015.15
2018-05-29T01:29:22.519Z,1015.16
2018-05-29T01:30:22.496Z,1015.15
2018-05-29T01:31:22.476Z,1015.16
2018-05-29T01:32:22.459Z,1015.13
2018-05-29T01:33:22.440Z,1015.15
2018-05-29T01:34:22.415Z,1015.12
2018-05-29T01:35:22.395Z,1015.07
2018-05-29T01:36:22.374Z,1015.03
2018-05-29T01:37:22.352Z,1015.04
2018-05-29T01:38:22.332Z,1015.08
2018-05-29T01:39:22.312Z,1015.02
2018-05-29T01:40:22.294Z,1014.99
2018-05-29T01:41:22.270Z,1015.00
2018-05-29T01:42:22.250Z,1014.98
2018-05-29T01:43:22.229Z,1014.96
2018-05-29T01:44:22.211Z,1014.91
2018-05-29T01:45:22.197Z,1014.93
2018-05-29T01:46:22.178Z,1014.87
2018-05-29T01:47:22.148Z,1014.89
2018-05-29T01:48:22.127Z,1014.87
2018-05-29T01:49:22.106Z,1014.88
2018-05-29T01:50:22.089Z,1014.87
2018-05-29T01:51:22.065Z,1014.86
2018-05-29T01:52:22.045Z,1014.84
2018-05-29T01:53:22.023Z,1014.83
2018-05-29T01:54:22.006Z,1014.85
2018-05-29T01:55:21.986Z,1014.83
2018-05-29T01:56:21.962Z,1014.88
2018-05-29T01:57:21.940Z,1014.79
2018-05-29T01:58:21.925Z,1014.85
2018-05-29T01:59:21.900Z,1014.81
2018-05-29T02:00:21.879Z,1014.79
2018-05-29T02:01:21.857Z,1014.75
2018-05-29T02:02:21.837Z,1014.78
2018-05-29T02:03:21.817Z,1014.78
2018-05-29T02:04:21.868Z,1014.75
2018-05-29T02:05:21.784Z,1014.72
2018-05-29T02:06:21.753Z,1014.73
2018-05-29T02:07:21.734Z,1014.72
2018-05-29T02:08:21.712Z,1014.73
2018-05-29T02:09:21.691Z,1014.69
2018-05-29T02:10:21.672Z,1014.77
2018-05-29T02:11:21.650Z,1014.72
2018-05-29T02:12:21.629Z,1014.71
2018-05-29T02:13:21.613Z,1014.69
2018-05-29T02:14:21.588Z,1014.72
2018-05-29T02:15:21.568Z,1014.73
2018-05-29T02:16:21.559Z,1014.71
2018-05-29T02:17:21.524Z,1014.73
2018-05-29T02:18:21.504Z,1014.72
2018-05-29T02:19:21.483Z,1014.71
2018-05-29T02:20:21.463Z,1014.72
2018-05-29T02:21:21.441Z,1014.71
2018-05-29T02:22:21.421Z,1014.71
2018-05-29T02:23:21.402Z,1014.69
2018-05-29T02:24:21.381Z,1014.68
2018-05-29T02:25:21.361Z,1014.69
2018-05-29T02:26:21.337Z,1014.71
2018-05-29T02:27:21.328Z,1014.73
2018-05-29T02:28:21.305Z,1014.69
2018-05-29T02:29:21.273Z,1014.71
2018-05-29T02:30:21.255Z,1014.70
2018-05-29T02:31:21.232Z,1014.72
2018-05-29T02:32:21.212Z,1014.73
2018-05-29T02:33:21.191Z,1014.72
2018-05-29T02:34:21.169Z,1014.70
2018-05-29T02:35:21.149Z,1014.72
2018-05-29T02:36:21.128Z,1014.69
2018-05-29T02:37:21.107Z,1014.69
2018-05-29T02:38:21.085Z,1014.70
2018-05-29T02:39:21.065Z,1014.66
2018-05-29T02:40:21.045Z,1014.69
2018-05-29T02:41:21.022Z,1014.71
2018-05-29T02:42:21.002Z,1014.71
2018-05-29T02:43:20.983Z,1014.69
2018-05-29T02:44:20.960Z,1014.73
2018-05-29T02:45:20.938Z,1014.73
2018-05-29T02:46:20.917Z,1014.71
2018-05-29T02:47:20.900Z,1014.76
2018-05-29T02:48:20.876Z,1014.72
2018-05-29T02:49:20.855Z,1014.71
2018-05-29T02:50:20.833Z,1014.73
2018-05-29T02:51:20.816Z,1014.73
2018-05-29T02:52:20.792Z,1014.72
2018-05-29T02:53:20.770Z,1014.72
2018-05-29T02:54:20.749Z,1014.73
2018-05-29T02:55:20.728Z,1014.69
2018-05-29T02:56:20.715Z,1014.73
2018-05-29T02:57:20.686Z,1014.69
2018-05-29T02:58:20.665Z,1014.73
2018-05-29T02:59:20.645Z,1014.73
2018-05-29T03:00:20.625Z,1014.72
2018-05-29T03:01:20.602Z,1014.69
2018-05-29T03:02:20.582Z,1014.74
2018-05-29T03:03:20.564Z,1014.70
2018-05-29T03:04:20.545Z,1014.71
2018-05-29T03:05:20.519Z,1014.71
2018-05-29T03:06:20.498Z,1014.74
2018-05-29T03:07:20.476Z,1014.75
2018-05-29T03:08:20.457Z,1014.76
2018-05-29T03:09:20.435Z,1014.73
2018-05-29T03:10:20.412Z,1014.74
2018-05-29T03:11:20.392Z,1014.78
2018-05-29T03:12:20.375Z,1014.79
2018-05-29T03:13:20.354Z,1014.80
2018-05-29T03:14:20.328Z,1014.81
2018-05-29T03:15:20.309Z,1014.81
2018-05-29T03:16:20.292Z,1014.82
2018-05-29T03:17:20.264Z,1014.80
2018-05-29T03:18:20.245Z,1014.76
2018-05-29T03:19:20.223Z,1014.77
2018-05-29T03:20:20.203Z,1014.76
2018-05-29T03:21:20.181Z,1014.80
2018-05-29T03:22:20.160Z,1014.81
2018-05-29T03:23:20.139Z,1014.82
2018-05-29T03:24:20.129Z,1014.83
2018-05-29T03:25:20.104Z,1014.86
2018-05-29T03:26:20.079Z,1014.87
2018-05-29T03:27:20.058Z,1014.92
2018-05-29T03:28:20.034Z,1014.92
2018-05-29T03:29:20.013Z,1014.89
2018-05-29T03:30:19.992Z,1014.84
2018-05-29T03:31:19.971Z,1014.88
2018-05-29T03:32:19.951Z,1014.88
2018-05-29T03:33:19.928Z,1014.87
2018-05-29T03:34:19.939Z,1014.83
2018-05-29T03:35:19.887Z,1014.87
2018-05-29T03:36:19.867Z,1014.86
2018-05-29T03:37:19.849Z,1014.86
2018-05-29T03:38:19.825Z,1014.91
2018-05-29T03:39:19.803Z,1014.90
2018-05-29T03:40:19.783Z,1014.89
2018-05-29T03:41:19.761Z,1014.91
2018-05-29T03:42:19.741Z,1014.90
2018-05-29T03:43:19.720Z,1014.91
2018-05-29T03:44:19.702Z,1014.99
2018-05-29T03:45:19.678Z,1014.98
2018-05-29T03:46:19.668Z,1015.01
2018-05-29T03:47:19.639Z,1015.05
2018-05-29T03:48:19.616Z,1015.06
2018-05-29T03:49:19.600Z,1015.06
2018-05-29T03:50:19.582Z,1015.08
2018-05-29T03:51:19.594Z,1015.16
2018-05-29T03:52:19.544Z,1015.11
2018-05-29T03:53:19.514Z,1015.16
2018-05-29T03:54:19.492Z,1015.15
2018-05-29T03:55:19.471Z,1015.13
2018-05-29T03:56:19.451Z,1015.12
2018-05-29T03:57:19.434Z,1015.17
2018-05-29T03:58:19.410Z,1015.21
2018-05-29T03:59:19.388Z,1015.19
2018-05-29T04:00:19.368Z,1015.21
2018-05-29T04:01:19.348Z,1015.23
2018-05-29T04:03:01.693Z,1015.25
2018-05-29T04:04:01.462Z,1015.26
2018-05-29T04:05:01.442Z,1015.25
2018-05-29T04:06:01.420Z,1015.26
2018-05-29T04:07:01.403Z,1015.26
2018-05-29T04:08:01.378Z,1015.23
2018-05-29T04:09:01.359Z,1015.23
2018-05-29T04:10:01.387Z,1015.21
2018-05-29T04:11:01.319Z,1015.20
2018-05-29T04:12:01.298Z,1015.24
2018-05-29T04:13:01.278Z,1015.23
2018-05-29T04:14:01.261Z,1015.27
2018-05-29T04:15:01.238Z,1015.25
2018-05-29T04:16:01.223Z,1015.24
2018-05-29T04:17:01.223Z,1015.24
2018-05-29T04:18:01.178Z,1015.29
2018-05-29T04:19:01.159Z,1015.30
2018-05-29T04:20:01.145Z,1015.34
2018-05-29T04:21:01.120Z,1015.33
2018-05-29T04:22:01.099Z,1015.33
2018-05-29T04:23:01.091Z,1015.36
2018-05-29T04:24:01.059Z,1015.40
2018-05-29T04:25:01.042Z,1015.36
2018-05-29T04:26:01.020Z,1015.35
2018-05-29T04:27:01.007Z,1015.37
2018-05-29T04:28:00.981Z,1015.38
2018-05-29T04:29:00.964Z,1015.40
2018-05-29T04:30:00.944Z,1015.40
2018-05-29T04:31:00.923Z,1015.41
2018-05-29T04:32:00.902Z,1015.41
2018-05-29T04:33:00.883Z,1015.42
2018-05-29T04:34:00.865Z,1015.43
2018-05-29T04:35:00.850Z,1015.41
2018-05-29T04:36:00.827Z,1015.40
2018-05-29T04:37:00.806Z,1015.38
2018-05-29T04:38:00.786Z,1015.41
2018-05-29T04:39:00.768Z,1015.44
2018-05-29T04:40:00.747Z,1015.47
2018-05-29T04:41:00.729Z,1015.47
2018-05-29T04:42:00.710Z,1015.45
2018-05-29T04:43:00.692Z,1015.45
2018-05-29T04:44:00.672Z,1015.43
2018-05-29T04:45:00.655Z,1015.46
2018-05-29T04:46:00.643Z,1015.43
2018-05-29T04:47:00.619Z,1015.44
2018-05-29T04:48:00.602Z,1015.54
2018-05-29T04:49:00.577Z,1015.57
2018-05-29T04:50:00.558Z,1015.60
2018-05-29T04:51:00.546Z,1015.46
2018-05-29T04:52:00.520Z,1015.35
2018-05-29T04:53:00.501Z,1015.34
2018-05-29T04:54:00.489Z,1015.31
2018-05-29T04:55:00.466Z,1015.33
2018-05-29T04:56:00.445Z,1015.56
2018-05-29T04:57:00.425Z,1015.66
2018-05-29T04:58:00.408Z,1015.71
2018-05-29T04:59:00.388Z,1015.71
2018-05-29T05:00:00.368Z,1015.77
2018-05-29T05:01:00.349Z,1015.84
2018-05-29T05:02:00.331Z,1016.01
2018-05-29T05:03:00.311Z,1016.20
2018-05-29T05:04:00.293Z,1016.42
2018-05-29T05:05:00.279Z,1016.72
2018-05-29T05:06:00.255Z,1016.56
2018-05-29T05:07:00.237Z,1016.09
2018-05-29T05:08:00.218Z,1015.77
2018-05-29T05:09:00.233Z,1015.45
2018-05-29T05:10:00.181Z,1015.61
2018-05-29T05:11:00.163Z,1015.58
2018-05-29T05:12:00.149Z,1015.60
2018-05-29T05:13:00.126Z,1015.62
2018-05-29T05:14:00.108Z,1015.60
2018-05-29T05:15:00.089Z,1015.65
2018-05-29T05:16:00.072Z,1015.68
2018-05-29T05:17:00.054Z,1015.67
2018-05-29T05:18:00.039Z,1015.74
2018-05-29T05:19:00.017Z,1015.71
2018-05-29T05:19:59.998Z,1015.70
2018-05-29T05:20:59.980Z,1015.69
2018-05-29T05:21:59.962Z,1015.58
2018-05-29T05:22:59.947Z,1015.66
2018-05-29T05:24:00.131Z,1015.75
2018-05-29T05:24:59.909Z,1015.74
2018-05-29T05:25:59.891Z,1015.72
2018-05-29T05:26:59.876Z,1015.79
2018-05-29T05:27:59.855Z,1015.80
2018-05-29T05:28:59.836Z,1015.83
2018-05-29T05:30:00.031Z,1015.77
2018-05-29T05:30:59.802Z,1015.78
2018-05-29T05:31:59.988Z,1015.81
2018-05-29T05:32:59.970Z,1015.85
2018-05-29T05:33:59.951Z,1015.79
2018-05-29T05:34:59.733Z,1015.86
2018-05-29T05:35:59.719Z,1015.86
2018-05-29T05:36:59.697Z,1015.88
2018-05-29T05:37:59.882Z,1015.90
2018-05-29T05:38:59.668Z,1015.90
2018-05-29T05:39:59.646Z,1015.89
2018-05-29T05:40:59.635Z,1015.94
2018-05-29T05:41:59.612Z,1015.91
2018-05-29T05:42:59.596Z,1015.93
2018-05-29T05:43:59.593Z,1015.96
2018-05-29T05:44:59.570Z,1015.92
2018-05-29T05:45:59.582Z,1015.92
2018-05-29T05:46:59.730Z,1015.95
2018-05-29T05:48:00.926Z,1016.02
2018-05-29T05:48:59.506Z,1016.08
2018-05-29T05:49:59.478Z,1016.16
2018-05-29T05:50:59.463Z,1016.20
2018-05-29T05:51:59.647Z,1016.15
2018-05-29T05:52:59.428Z,1016.24
2018-05-29T05:53:59.413Z,1016.26
2018-05-29T05:54:59.401Z,1016.32
2018-05-29T05:55:59.380Z,1016.35
2018-05-29T05:56:59.567Z,1016.45
2018-05-29T05:57:59.349Z,1016.53
2018-05-29T05:58:59.340Z,1016.52
2018-05-29T05:59:59.322Z,1016.49
2018-05-29T06:00:59.342Z,1016.42
2018-05-29T06:01:59.304Z,1016.56
2018-05-29T06:02:59.306Z,1016.68
2018-05-29T06:03:59.255Z,1016.62
2018-05-29T06:04:59.242Z,1016.61
2018-05-29T06:05:59.429Z,1016.58
2018-05-29T06:06:59.210Z,1016.60
2018-05-29T06:07:59.210Z,1016.63
2018-05-29T06:08:59.187Z,1016.64
2018-05-29T06:09:59.165Z,1016.66
2018-05-29T06:10:59.150Z,1016.63
2018-05-29T06:11:59.139Z,1016.51
2018-05-29T06:12:59.120Z,1016.52
2018-05-29T06:13:59.105Z,1016.61
2018-05-29T06:14:59.093Z,1016.67
2018-05-29T06:15:59.077Z,1016.62
2018-05-29T06:16:59.064Z,1016.72
2018-05-29T06:17:59.049Z,1016.63
2018-05-29T06:18:59.031Z,1016.65
2018-05-29T06:19:59.016Z,1016.64
2018-05-29T06:20:59.005Z,1016.65
2018-05-29T06:21:58.997Z,1016.65
2018-05-29T06:22:58.977Z,1016.64
2018-05-29T06:23:58.959Z,1016.63
2018-05-29T06:24:58.945Z,1016.61
2018-05-29T06:25:58.934Z,1016.65
2018-05-29T06:26:58.917Z,1016.62
2018-05-29T06:30:58.862Z,1016.67
2018-05-29T06:31:58.847Z,1016.64
2018-05-29T06:32:58.833Z,1016.69
2018-05-29T06:33:58.820Z,1016.64
2018-05-29T06:34:58.809Z,1016.69
2018-05-29T06:35:58.791Z,1016.73
2018-05-29T06:36:58.783Z,1016.71
2018-05-29T07:01:08.614Z,1016.63
2018-05-29T07:02:08.736Z,1016.67
2018-05-29T07:03:08.525Z,1016.64
2018-05-29T07:04:08.506Z,1016.64
2018-05-29T07:05:08.503Z,1016.60
2018-05-29T07:08:08.457Z,1016.60
2018-05-29T07:09:08.444Z,1016.65
2018-05-29T07:10:08.434Z,1016.62
2018-05-29T07:11:08.423Z,1016.64
2018-05-29T07:12:08.407Z,1016.69
2018-05-29T07:13:08.395Z,1016.67
2018-05-29T07:14:08.383Z,1016.69
2018-05-29T07:15:08.371Z,1016.69
2018-05-29T07:16:08.370Z,1016.72
2018-05-29T07:17:08.347Z,1016.67
2018-05-29T07:18:08.337Z,1016.68
2018-05-29T07:19:08.327Z,1016.66
2018-05-29T07:20:08.313Z,1016.66
2018-05-29T07:21:08.299Z,1016.67
2018-05-29T07:22:08.292Z,1016.63
2018-05-29T07:23:08.276Z,1016.67
2018-05-29T07:24:08.267Z,1016.64
2018-05-29T07:25:08.252Z,1016.63
2018-05-29T07:26:08.442Z,1016.64
2018-05-29T07:27:11.087Z,1016.65
2018-05-29T07:28:08.218Z,1016.69
2018-05-29T07:29:08.206Z,1016.60
2018-05-29T07:30:08.195Z,1016.60
2018-05-29T07:31:08.183Z,1016.55
2018-05-29T07:32:08.171Z,1016.57
2018-05-29T07:33:08.161Z,1016.57
2018-05-29T07:34:08.154Z,1016.58
2018-05-29T07:35:08.142Z,1016.58
2018-05-29T07:36:08.127Z,1016.57
2018-05-29T07:37:08.114Z,1016.55
2018-05-29T07:49:10.383Z,1016.48
2018-05-29T07:50:07.971Z,1016.53
2018-05-29T07:51:07.966Z,1016.47
2018-05-29T07:52:07.950Z,1016.47
2018-05-29T07:53:07.938Z,1016.41
2018-05-29T07:54:07.927Z,1016.42
2018-05-29T07:55:07.923Z,1016.40
2018-05-29T07:56:07.906Z,1016.42
2018-05-29T07:57:07.896Z,1016.38
2018-05-29T07:58:07.885Z,1016.38
2018-05-29T07:59:07.875Z,1016.38
2018-05-29T08:00:07.866Z,1016.39
2018-05-29T08:01:07.855Z,1016.26
2018-05-29T08:02:07.846Z,1016.36
2018-05-29T08:03:07.834Z,1016.35
2018-05-29T08:04:07.831Z,1016.34
2018-05-29T08:05:08.018Z,1016.31
2018-05-29T08:06:08.009Z,1016.24
2018-05-29T08:07:07.820Z,1016.28
2018-05-29T08:08:07.785Z,1016.26
2018-05-29T08:09:07.777Z,1016.27
2018-05-29T08:10:07.970Z,1016.21
2018-05-29T08:11:07.962Z,1016.24
2018-05-29T08:12:07.966Z,1016.25
2018-05-29T08:13:07.743Z,1016.24
2018-05-29T08:14:07.727Z,1016.27
2018-05-29T08:15:07.924Z,1016.31
2018-05-29T08:16:07.708Z,1016.27
2018-05-29T08:17:07.699Z,1016.33
2018-05-29T08:18:07.691Z,1016.31
2018-05-29T08:19:07.732Z,1016.33
2018-05-29T08:20:07.674Z,1016.32
2018-05-29T08:21:07.685Z,1016.34
2018-05-29T08:22:07.657Z,1016.28
2018-05-29T08:23:07.645Z,1016.19
2018-05-29T08:24:07.644Z,1016.15
2018-05-29T08:25:07.627Z,1016.20
2018-05-29T08:26:07.628Z,1016.16
2018-05-29T08:27:07.611Z,1016.18
2018-05-29T08:28:07.601Z,1016.17
2018-05-29T08:29:07.592Z,1016.18
2018-05-29T08:30:07.591Z,1016.13
2018-05-29T08:31:07.588Z,1016.07
2018-05-29T08:32:07.574Z,1016.08
2018-05-29T08:33:07.563Z,1016.08
2018-05-29T08:34:07.555Z,1016.05
2018-05-29T08:35:07.549Z,1016.05
2018-05-29T08:36:07.536Z,1016.03
2018-05-29T08:37:07.533Z,1016.01
2018-05-29T08:38:07.524Z,1015.96
2018-05-29T08:39:07.522Z,1015.93
2018-05-29T08:40:07.507Z,1015.97
2018-05-29T08:41:07.506Z,1015.94
2018-05-29T08:42:07.480Z,1015.96
2018-05-29T08:43:07.471Z,1015.98
2018-05-29T08:44:07.461Z,1015.95
2018-05-29T08:45:07.452Z,1015.91
2018-05-29T08:46:07.490Z,1015.95
2018-05-29T08:47:07.439Z,1015.94
2018-05-29T08:48:07.429Z,1015.90
2018-05-29T08:49:07.418Z,1015.85
2018-05-29T08:50:07.412Z,1015.89
2018-05-29T08:51:07.406Z,1015.92
2018-05-29T08:52:07.392Z,1015.88
2018-05-29T08:53:07.384Z,1015.89
2018-05-29T08:54:07.384Z,1015.90
2018-05-29T08:55:07.373Z,1015.84
2018-05-29T08:56:07.358Z,1015.82
2018-05-29T08:57:07.352Z,1015.81
2018-05-29T08:58:07.358Z,1015.80
2018-05-29T08:59:07.344Z,1015.83
2018-05-29T09:00:07.327Z,1015.79
2018-05-29T09:01:07.328Z,1015.76
2018-05-29T09:02:07.318Z,1015.80
2018-05-29T09:03:07.311Z,1015.81
2018-05-29T09:04:07.446Z,1015.81
2018-05-29T09:05:07.295Z,1015.80
2018-05-29T09:06:07.286Z,1015.78
2018-05-29T09:07:07.280Z,1015.75
2018-05-29T09:08:07.283Z,1015.74
2018-05-29T09:09:07.265Z,1015.68
2018-05-29T09:10:07.258Z,1015.69
2018-05-29T09:11:07.249Z,1015.71
2018-05-29T09:12:07.243Z,1015.74
2018-05-29T09:13:07.241Z,1015.71
2018-05-29T09:14:07.226Z,1015.71
2018-05-29T09:15:07.226Z,1015.70
2018-05-29T09:16:07.219Z,1015.74
2018-05-29T09:17:07.205Z,1015.71
2018-05-29T09:18:07.197Z,1015.67
2018-05-29T09:19:07.189Z,1015.72
2018-05-29T09:20:07.183Z,1015.69
2018-05-29T09:21:07.174Z,1015.68
2018-05-29T09:22:07.166Z,1015.75
2018-05-29T09:23:07.160Z,1015.82
2018-05-29T09:24:07.158Z,1015.91
2018-05-29T09:25:07.146Z,1016.07
2018-05-29T09:26:07.177Z,1016.10
2018-05-29T09:27:07.131Z,1015.86
2018-05-29T09:28:07.123Z,1015.76
2018-05-29T09:29:07.115Z,1015.50
2018-05-29T09:30:07.112Z,1015.16
2018-05-29T09:31:07.104Z,1014.88
2018-05-29T09:32:07.101Z,1014.83
2018-05-29T09:33:07.093Z,1014.77
2018-05-29T09:34:07.084Z,1014.76
2018-05-29T09:35:07.075Z,1014.79
2018-05-29T09:36:07.069Z,1014.81
2018-05-29T09:37:07.060Z,1014.72
2018-05-29T09:38:07.054Z,1014.70
2018-05-29T09:39:07.046Z,1014.66
2018-05-29T09:40:07.040Z,1014.61
2018-05-29T09:41:07.041Z,1014.62
2018-05-29T09:42:07.027Z,1014.64
2018-05-29T09:43:07.018Z,1014.62
2018-05-29T09:44:07.012Z,1014.61
2018-05-29T09:45:07.004Z,1014.61
2018-05-29T09:46:06.997Z,1014.64
2018-05-29T09:47:06.990Z,1014.62
2018-05-29T09:48:06.981Z,1014.48
2018-05-29T09:49:06.976Z,1014.62
2018-05-29T09:50:06.962Z,1014.59
2018-05-29T09:51:06.969Z,1014.61
2018-05-29T09:52:06.955Z,1014.63
2018-05-29T09:53:06.954Z,1014.58
2018-05-29T09:54:06.968Z,1014.51
2018-05-29T09:55:06.937Z,1014.62
2018-05-29T09:56:06.926Z,1014.59
2018-05-29T09:57:06.920Z,1014.52
2018-05-29T09:58:06.912Z,1014.57
2018-05-29T09:59:06.907Z,1014.50
2018-05-29T10:00:06.979Z,1014.47
2018-05-29T10:01:06.904Z,1014.49
2018-05-29T10:02:06.882Z,1014.54
2018-05-29T10:03:06.876Z,1014.50
2018-05-29T10:04:06.866Z,1014.51
2018-05-29T10:05:06.860Z,1014.46
2018-05-29T10:06:06.853Z,1014.56
2018-05-29T10:07:06.952Z,1014.52
2018-05-29T10:08:06.837Z,1014.45
2018-05-29T10:09:06.830Z,1014.41
2018-05-29T10:10:06.823Z,1014.43
2018-05-29T10:11:06.816Z,1014.45
2018-05-29T10:12:06.808Z,1014.50
2018-05-29T10:13:06.839Z,1014.52
2018-05-29T10:14:06.800Z,1014.43
2018-05-29T10:15:06.787Z,1014.44
2018-05-29T10:16:06.788Z,1014.44
2018-05-29T10:17:06.824Z,1014.34
2018-05-29T10:18:06.776Z,1014.36
2018-05-29T10:19:06.759Z,1014.38
2018-05-29T10:20:06.749Z,1014.35
2018-05-29T10:21:06.743Z,1014.32
2018-05-29T10:22:06.748Z,1014.28
2018-05-29T10:23:06.727Z,1014.41
2018-05-29T10:24:06.721Z,1014.27
2018-05-29T10:25:06.719Z,1014.21
2018-05-29T10:26:06.710Z,1014.32
2018-05-29T10:27:06.700Z,1014.32
2018-05-29T10:28:06.692Z,1014.27
2018-05-29T10:29:06.687Z,1014.15
2018-05-29T10:30:06.689Z,1014.27
2018-05-29T10:31:06.671Z,1014.27
2018-05-29T10:32:06.667Z,1014.20
2018-05-29T10:33:06.657Z,1014.21
2018-05-29T10:34:06.656Z,1014.23
2018-05-29T10:35:06.646Z,1014.22
2018-05-29T10:36:06.635Z,1014.24
2018-05-29T10:37:06.628Z,1014.19
2018-05-29T10:38:06.621Z,1014.20
2018-05-29T10:39:06.620Z,1014.21
2018-05-29T10:40:06.607Z,1014.32
2018-05-29T10:41:06.609Z,1014.31
2018-05-29T10:42:06.595Z,1014.32
2018-05-29T10:43:06.588Z,1014.40
2018-05-29T10:44:06.579Z,1014.38
2018-05-29T10:45:06.575Z,1014.30
2018-05-29T10:46:06.588Z,1014.39
2018-05-29T10:47:06.570Z,1014.42
2018-05-29T10:48:06.551Z,1014.41
2018-05-29T10:49:06.547Z,1014.43
2018-05-29T10:50:06.537Z,1014.46
2018-05-29T10:51:06.546Z,1014.37
2018-05-29T10:52:06.557Z,1014.41
2018-05-29T10:53:06.516Z,1014.53
2018-05-29T10:54:06.510Z,1014.50
2018-05-29T10:55:06.503Z,1014.32
2018-05-29T10:56:06.495Z,1014.40
2018-05-29T10:57:06.490Z,1014.54
2018-05-29T10:58:06.481Z,1014.44
2018-05-29T10:59:06.486Z,1014.53
2018-05-29T11:00:06.468Z,1014.57
2018-05-29T11:01:06.461Z,1014.64
2018-05-29T11:02:06.454Z,1014.65
2018-05-29T11:03:06.448Z,1014.58
2018-05-29T11:04:06.440Z,1014.70
2018-05-29T11:05:06.433Z,1014.68
2018-05-29T11:06:06.441Z,1014.66
2018-05-29T11:07:06.421Z,1014.73
2018-05-29T11:08:06.415Z,1014.70
2018-05-29T11:09:06.407Z,1014.69
2018-05-29T11:10:06.401Z,1014.65
2018-05-29T11:11:06.395Z,1014.68
2018-05-29T11:12:06.387Z,1014.72
2018-05-29T11:13:06.384Z,1014.66
2018-05-29T11:14:06.405Z,1014.60
2018-05-29T11:15:06.370Z,1014.67
2018-05-29T11:16:06.368Z,1014.70
2018-05-29T11:17:06.354Z,1014.62
2018-05-29T11:18:06.349Z,1014.67
2018-05-29T11:19:06.354Z,1014.61
2018-05-29T11:20:06.406Z,1014.60
2018-05-29T11:21:06.340Z,1014.64
2018-05-29T11:22:06.344Z,1014.64
2018-05-29T11:23:06.315Z,1014.75
2018-05-29T11:24:06.310Z,1014.35
2018-05-29T11:25:06.303Z,1014.59
2018-05-29T11:26:06.296Z,1014.53
2018-05-29T11:27:06.291Z,1014.47
2018-05-29T11:28:06.281Z,1014.51
2018-05-29T11:29:06.434Z,1014.52
2018-05-29T11:30:06.272Z,1014.47
2018-05-29T11:31:06.265Z,1014.46
2018-05-29T11:32:06.266Z,1014.27
2018-05-29T11:33:06.250Z,1014.41
2018-05-29T11:34:06.244Z,1014.46
2018-05-29T11:35:06.237Z,1014.30
2018-05-29T11:36:06.229Z,1014.44
2018-05-29T11:37:06.240Z,1014.33
2018-05-29T11:38:06.223Z,1014.49
2018-05-29T11:39:06.211Z,1014.33
2018-05-29T11:40:06.205Z,1014.47
2018-05-29T11:41:06.206Z,1014.42
2018-05-29T11:42:06.194Z,1014.27
2018-05-29T11:43:06.191Z,1014.44
2018-05-29T11:44:06.183Z,1014.38
2018-05-29T11:45:06.172Z,1014.26
2018-05-29T11:46:06.184Z,1014.35
2018-05-29T11:47:06.160Z,1014.29
2018-05-29T11:48:06.172Z,1014.32
2018-05-29T11:49:06.147Z,1014.30
2018-05-29T11:50:06.143Z,1014.20
2018-05-29T11:51:06.136Z,1014.20
2018-05-29T11:52:06.131Z,1014.26
2018-05-29T11:53:06.120Z,1014.22
2018-05-29T11:54:06.114Z,1014.09
2018-05-29T11:55:06.109Z,1014.16
2018-05-29T11:56:06.100Z,1014.10
2018-05-29T11:57:06.099Z,1014.03
2018-05-29T11:58:06.090Z,1014.09
2018-05-29T11:59:06.083Z,1013.78
2018-05-29T12:00:06.075Z,1013.97
2018-05-29T12:01:06.069Z,1014.03
2018-05-29T12:02:06.069Z,1014.06
2018-05-29T12:03:06.057Z,1013.93
2018-05-29T12:04:06.052Z,1013.91
2018-05-29T12:05:06.048Z,1013.97
2018-05-29T12:06:06.056Z,1013.99
2018-05-29T12:07:06.034Z,1014.04
2018-05-29T12:08:06.032Z,1014.05
2018-05-29T12:09:06.019Z,1013.86
2018-05-29T12:10:06.012Z,1014.04
2018-05-29T12:11:06.032Z,1014.00
2018-05-29T12:12:06.002Z,1013.60
2018-05-29T12:13:05.996Z,1013.98
2018-05-29T12:14:05.988Z,1013.85
2018-05-29T12:15:05.982Z,1013.97
2018-05-29T12:16:05.978Z,1013.93
2018-05-29T12:17:05.970Z,1013.95
2018-05-29T12:18:05.964Z,1013.98
2018-05-29T12:19:05.957Z,1014.05
2018-05-29T12:20:05.951Z,1013.96
2018-05-29T12:21:05.945Z,1014.00
2018-05-29T12:22:05.955Z,1014.04
2018-05-29T12:23:05.944Z,1013.97
2018-05-29T12:24:05.927Z,1013.99
2018-05-29T12:25:05.923Z,1013.96
2018-05-29T12:26:05.915Z,1013.91
2018-05-29T12:27:05.912Z,1014.00
2018-05-29T12:28:05.903Z,1013.97
2018-05-29T12:29:05.899Z,1013.81
2018-05-29T12:30:05.895Z,1013.91
2018-05-29T12:31:05.886Z,1013.89
2018-05-29T12:32:05.879Z,1013.87
2018-05-29T12:33:05.873Z,1013.96
2018-05-29T12:34:05.868Z,1013.74
2018-05-29T12:35:05.866Z,1013.86
2018-05-29T12:36:05.855Z,1013.78
2018-05-29T12:37:05.854Z,1013.60
2018-05-29T12:38:05.851Z,1013.86
2018-05-29T12:39:05.853Z,1013.88
2018-05-29T12:40:05.856Z,1013.95
2018-05-29T12:41:05.823Z,1013.97
2018-05-29T12:42:05.817Z,1014.07
2018-05-29T12:43:05.819Z,1013.87
2018-05-29T12:44:05.804Z,1014.08
2018-05-29T12:45:05.803Z,1014.01